Time;durP1;ratioP1;P1;durP2;ratioP2;P2;SDS_P1;SDS_P2;PMS_P1;PMS_P2;Temp;Humidity;BMP_temperature;BMP_pressure;BME280_temperature;BME280_humidity;BME280_pressure;Samples;Min_cycle;Max_cycle;Signal;HPM_P1;HPM_P2
2022/09/21 00:00:25;;;;;;;6.82;3.88;;;8.90;99.90;;;;;;5021673;28;20651;-59
2022/09/21 00:02:56;;;;;;;5.57;3.58;;;8.90;99.90;;;;;;5022495;28;20057;-63
2022/09/21 00:05:23;;;;;;;7.60;4.00;;;8.90;99.90;;;;;;5021573;28;20132;-57
2022/09/21 00:07:51;;;;;;;12.27;3.20;;;8.90;99.90;;;;;;5020821;28;20050;-59
2022/09/21 00:10:19;;;;;;;6.78;3.75;;;8.90;99.90;;;;;;5024363;28;20049;-61
2022/09/21 00:12:47;;;;;;;8.57;3.63;;;8.90;99.90;;;;;;5029285;28;20044;-58
2022/09/21 00:15:18;;;;;;;5.00;3.67;;;8.90;99.90;;;;;;5020940;28;20049;-60
2022/09/21 00:17:49;;;;;;;5.28;3.20;;;8.90;99.90;;;;;;5036187;28;20045;-60
2022/09/21 00:20:16;;;;;;;4.47;3.00;;;8.90;99.90;;;;;;5021082;28;20055;-58
2022/09/21 00:22:43;;;;;;;;;;;8.90;99.90;;;;;;5026590;28;20060;-60
2022/09/21 00:25:09;;;;;;;6.28;3.47;;;8.90;99.90;;;;;;5017099;28;19955;-58
2022/09/21 00:27:36;;;;;;;6.15;2.83;;;8.90;99.90;;;;;;5022022;28;20042;-58
2022/09/21 00:30:05;;;;;;;;;;;8.90;99.90;;;;;;5023499;28;20053;-59
2022/09/21 00:32:33;;;;;;;4.30;3.03;;;8.80;99.90;;;;;;5022318;28;19931;-58
2022/09/21 00:35:01;;;;;;;4.25;3.00;;;8.80;99.90;;;;;;5014403;28;20131;-59
2022/09/21 00:37:29;;;;;;;5.95;2.83;;;8.80;99.90;;;;;;5017483;28;20057;-60
2022/09/21 00:39:56;;;;;;;6.75;2.55;;;8.80;99.90;;;;;;5019979;28;20705;-58
2022/09/21 00:42:31;;;;;;;3.38;2.58;;;8.80;99.90;;;;;;5021377;28;20114;-60
2022/09/21 00:44:58;;;;;;;15.93;3.92;;;8.70;99.90;;;;;;5022772;28;20140;-59
2022/09/21 00:47:35;;;;;;;;;;;8.70;99.90;;;;;;5017669;28;20040;-61
2022/09/21 00:50:07;;;;;;;5.75;3.42;;;8.60;99.90;;;;;;5018864;28;19956;-58
2022/09/21 00:52:39;;;;;;;7.82;3.30;;;8.60;99.90;;;;;;5022463;28;20033;-58
2022/09/21 00:55:15;;;;;;;7.25;4.10;;;8.50;99.90;;;;;;5020235;28;20072;-62
2022/09/21 00:57:45;;;;;;;12.25;4.68;;;8.50;99.90;;;;;;5020715;28;20135;-60
2022/09/21 01:00:13;;;;;;;7.25;4.15;;;8.50;99.90;;;;;;5018864;28;20124;-61
2022/09/21 01:02:40;;;;;;;8.95;4.30;;;8.40;99.90;;;;;;5020783;28;20107;-57
2022/09/21 01:05:08;;;;;;;7.72;4.82;;;8.50;99.90;;;;;;5023702;28;20152;-61
2022/09/21 01:07:42;;;;;;;11.90;4.22;;;8.40;99.90;;;;;;5018977;28;20073;-60
2022/09/21 01:10:13;;;;;;;7.82;4.75;;;8.40;99.90;;;;;;5019643;28;20380;-59
2022/09/21 01:12:54;;;;;;;4.95;3.78;;;8.50;99.90;;;;;;5020515;28;20181;-59
2022/09/21 01:15:33;;;;;;;8.93;4.90;;;8.50;99.90;;;;;;5021445;28;20650;-61
2022/09/21 01:18:03;;;;;;;7.35;4.10;;;8.50;99.90;;;;;;5015417;28;20045;-61
2022/09/21 01:20:42;;;;;;;7.68;4.20;;;8.50;99.90;;;;;;5015089;28;20056;-60
2022/09/21 01:23:33;;;;;;;6.63;3.35;;;8.50;99.90;;;;;;5019564;28;20124;-62
2022/09/21 01:26:25;;;;;;;8.07;3.90;;;8.50;99.90;;;;;;5017432;28;20040;-60
2022/09/21 01:29:16;;;;;;;8.80;3.83;;;8.40;99.90;;;;;;5019072;28;20046;-62
2022/09/21 01:31:47;;;;;;;10.60;3.95;;;8.40;99.90;;;;;;5020902;28;20037;-59
2022/09/21 01:34:27;;;;;;;6.60;3.95;;;8.40;99.90;;;;;;5021244;28;20045;-63
2022/09/21 01:36:56;;;;;;;10.60;5.20;;;8.30;99.90;;;;;;5022695;28;20072;-61
2022/09/21 01:39:25;;;;;;;4.93;3.38;;;8.30;99.90;;;;;;5022782;28;20041;-58
2022/09/21 01:41:54;;;;;;;6.53;4.28;;;8.20;99.90;;;;;;5019968;28;20049;-59
2022/09/21 01:44:26;;;;;;;10.20;4.20;;;8.20;99.90;;;;;;5013116;28;20049;-60
2022/09/21 01:46:55;;;;;;;10.77;3.88;;;8.10;99.90;;;;;;5019590;28;20130;-58
2022/09/21 01:49:32;;;;;;;7.38;4.68;;;8.10;99.90;;;;;;5019878;28;20779;-59
2022/09/21 01:52:06;;;;;;;6.88;4.25;;;8.00;99.90;;;;;;5016556;28;20130;-59
2022/09/21 01:54:40;;;;;;;6.57;3.95;;;8.00;99.90;;;;;;5017940;28;20045;-58
2022/09/21 01:57:18;;;;;;;16.95;4.28;;;7.90;99.90;;;;;;5023771;28;20072;-58
2022/09/21 01:59:58;;;;;;;;;;;7.80;99.90;;;;;;5017228;28;20107;-56
2022/09/21 02:02:30;;;;;;;10.85;4.90;;;7.80;99.90;;;;;;5017369;28;19948;-59
2022/09/21 02:05:01;;;;;;;8.93;5.00;;;7.70;99.90;;;;;;5018297;28;20108;-59
2022/09/21 02:07:31;;;;;;;10.00;5.00;;;7.60;99.90;;;;;;5017025;28;20069;-60
2022/09/21 02:09:59;;;;;;;5.18;4.18;;;7.50;99.90;;;;;;5019458;28;20041;-59
2022/09/21 02:12:26;;;;;;;10.63;5.47;;;7.50;99.90;;;;;;5021808;28;20041;-57
2022/09/21 02:14:56;;;;;;;10.90;5.60;;;7.40;99.90;;;;;;5016789;28;20056;-60
2022/09/21 02:18:03;;;;;;;9.00;4.93;;;7.30;99.90;;;;;;5019294;28;20570;-56
2022/09/21 02:20:35;;;;;;;6.57;4.95;;;7.30;99.90;;;;;;5011076;28;20061;-59
2022/09/21 02:23:22;;;;;;;19.45;5.82;;;7.20;99.90;;;;;;5019309;28;20049;-59
2022/09/21 02:25:53;;;;;;;9.82;5.57;;;7.20;99.90;;;;;;5018366;28;20075;-60
2022/09/21 02:28:29;;;;;;;9.48;5.32;;;7.10;99.90;;;;;;5017434;28;20099;-59
2022/09/21 02:31:06;;;;;;;16.92;6.05;;;7.10;99.90;;;;;;5017954;28;20687;-60
2022/09/21 02:33:52;;;;;;;12.85;5.75;;;7.00;99.90;;;;;;5016460;28;20057;-60
2022/09/21 02:36:34;;;;;;;12.27;5.80;;;6.90;99.90;;;;;;5020975;28;20047;-58
2022/09/21 02:39:14;;;;;;;13.15;6.60;;;6.90;99.90;;;;;;5022646;28;20808;-59
2022/09/21 02:42:02;;;;;;;12.63;6.45;;;6.80;99.90;;;;;;5022409;28;20050;-59
2022/09/21 02:44:32;;;;;;;;;;;6.80;99.90;;;;;;5021873;28;20119;-56
2022/09/21 02:47:05;;;;;;;11.50;5.15;;;6.70;99.90;;;;;;5020263;28;20831;-59
2022/09/21 02:49:36;;;;;;;11.85;5.50;;;6.70;99.90;;;;;;5018716;28;20045;-59
2022/09/21 02:52:13;;;;;;;7.95;5.70;;;6.60;99.90;;;;;;5021408;28;20044;-61
2022/09/21 02:54:43;;;;;;;11.85;7.28;;;6.60;99.90;;;;;;5020046;28;20076;-61
2022/09/21 02:57:11;;;;;;;14.60;6.93;;;6.60;99.90;;;;;;5021993;28;20073;-59
2022/09/21 02:59:39;;;;;;;12.18;7.35;;;6.50;99.90;;;;;;5022629;28;20046;-59
2022/09/21 03:02:06;;;;;;;14.45;6.75;;;6.50;99.90;;;;;;5024147;28;20051;-61
2022/09/21 03:04:33;;;;;;;12.85;6.75;;;6.40;99.90;;;;;;5028672;28;20869;-61
2022/09/21 03:07:00;;;;;;;26.38;8.23;;;6.40;99.90;;;;;;5019700;28;20059;-60
2022/09/21 03:09:26;;;;;;;15.52;6.50;;;6.40;99.90;;;;;;5018297;28;20064;-61
2022/09/21 03:11:53;;;;;;;11.68;6.30;;;6.30;99.90;;;;;;5016300;28;20056;-59
2022/09/21 03:14:20;;;;;;;10.65;5.93;;;6.30;99.90;;;;;;5020975;28;20049;-59
2022/09/21 03:16:46;;;;;;;11.20;6.18;;;6.30;99.90;;;;;;5022176;28;20045;-58
2022/09/21 03:19:14;;;;;;;12.35;5.72;;;6.30;99.90;;;;;;5022304;28;20073;-59
2022/09/21 03:21:41;;;;;;;12.30;6.50;;;6.30;99.90;;;;;;5016494;28;20056;-60
2022/09/21 03:24:10;;;;;;;12.30;6.07;;;6.30;99.90;;;;;;5018565;28;20051;-59
2022/09/21 03:26:37;;;;;;;;;;;6.20;99.90;;;;;;5026089;28;20041;-60
2022/09/21 03:29:04;;;;;;;10.37;5.13;;;6.20;99.90;;;;;;5025128;28;19925;-60
2022/09/21 03:31:31;;;;;;;;;;;6.20;99.90;;;;;;5025014;28;20737;-61
2022/09/21 03:33:58;;;;;;;10.00;6.07;;;6.10;99.90;;;;;;5022236;28;20027;-61
2022/09/21 03:36:24;;;;;;;;;;;6.10;99.90;;;;;;5021856;28;20945;-61
2022/09/21 03:38:51;;;;;;;16.58;5.57;;;6.10;99.90;;;;;;5020432;28;19932;-60
2022/09/21 03:41:18;;;;;;;;;;;6.10;99.90;;;;;;5024415;28;20558;-58
2022/09/21 03:43:45;;;;;;;8.70;4.80;;;6.10;99.90;;;;;;5021915;28;20527;-60
2022/09/21 03:46:11;;;;;;;9.43;5.13;;;6.00;99.90;;;;;;5017594;28;20049;-61
2022/09/21 03:48:41;;;;;;;8.52;5.18;;;6.00;99.90;;;;;;5022461;28;20053;-60
2022/09/21 03:51:07;;;;;;;9.98;5.03;;;6.00;99.90;;;;;;5021626;28;20320;-61
2022/09/21 03:53:34;;;;;;;12.23;4.55;;;5.90;99.90;;;;;;5025723;28;20073;-58
2022/09/21 03:56:01;;;;;;;;;;;5.90;99.90;;;;;;5026412;28;20041;-60
2022/09/21 03:58:28;;;;;;;6.05;4.57;;;5.90;99.90;;;;;;5023249;28;20217;-61
2022/09/21 04:01:00;;;;;;;7.82;4.50;;;5.90;99.90;;;;;;5016486;28;20718;-59
2022/09/21 04:03:27;;;;;;;7.75;4.10;;;5.80;99.90;;;;;;5019923;28;20095;-62
2022/09/21 04:05:53;;;;;;;6.80;4.43;;;5.80;99.90;;;;;;5019815;28;20036;-59
2022/09/21 04:08:20;;;;;;;8.15;4.80;;;5.80;99.90;;;;;;5019320;28;20080;-59
2022/09/21 04:10:47;;;;;;;5.05;3.67;;;5.80;99.90;;;;;;5022278;28;20045;-61
2022/09/21 04:13:13;;;;;;;6.18;4.30;;;5.80;99.90;;;;;;5021760;28;20038;-56
2022/09/21 04:15:40;;;;;;;10.07;4.07;;;5.70;99.90;;;;;;5018907;28;20081;-55
2022/09/21 04:18:07;;;;;;;7.30;4.32;;;5.70;99.90;;;;;;5021922;28;20455;-58
2022/09/21 04:20:33;;;;;;;7.05;4.38;;;5.70;99.90;;;;;;5014703;28;20049;-58
2022/09/21 04:23:00;;;;;;;;;;;5.70;99.90;;;;;;5015026;28;20044;-55
2022/09/21 04:25:27;;;;;;;4.82;3.80;;;5.70;99.90;;;;;;5014525;28;19920;-59
2022/09/21 04:27:54;;;;;;;11.77;5.57;;;5.60;99.90;;;;;;5022322;28;20037;-57
2022/09/21 04:30:21;;;;;;;;;;;5.60;99.90;;;;;;5026786;28;20044;-61
2022/09/21 04:32:47;;;;;;;5.85;4.47;;;5.60;99.90;;;;;;5020692;28;20031;-58
2022/09/21 04:35:14;;;;;;;6.80;4.75;;;5.50;99.90;;;;;;5019539;28;20049;-60
2022/09/21 04:37:41;;;;;;;5.05;4.38;;;5.40;99.90;;;;;;5021382;28;20076;-58
2022/09/21 04:40:08;;;;;;;18.63;4.75;;;5.40;99.90;;;;;;5018063;28;20045;-57
2022/09/21 04:42:35;;;;;;;8.40;4.90;;;5.30;99.90;;;;;;5018822;28;20046;-61
2022/09/21 04:45:02;;;;;;;8.23;4.95;;;5.30;99.90;;;;;;5020311;28;20037;-58
2022/09/21 04:47:30;;;;;;;4.50;4.05;;;5.30;99.90;;;;;;5019417;28;20041;-56
2022/09/21 04:49:57;;;;;;;5.68;3.67;;;5.30;99.90;;;;;;5019770;28;20045;-58
2022/09/21 04:52:24;;;;;;;8.00;3.88;;;5.30;99.90;;;;;;5021975;28;20037;-58
2022/09/21 04:54:51;;;;;;;6.25;4.03;;;5.40;99.90;;;;;;5020465;28;20068;-56
2022/09/21 04:57:18;;;;;;;6.47;4.22;;;5.40;99.90;;;;;;5023297;28;20832;-57
2022/09/21 04:59:45;;;;;;;5.07;4.07;;;5.40;99.90;;;;;;5023793;28;20462;-56
2022/09/21 05:02:11;;;;;;;;;;;5.40;99.90;;;;;;5019425;28;20765;-56
2022/09/21 05:04:38;;;;;;;4.75;4.07;;;5.50;99.90;;;;;;5019958;28;19932;-52
2022/09/21 05:07:05;;;;;;;6.65;4.70;;;5.50;99.90;;;;;;5012562;28;20041;-58
2022/09/21 05:12:17;;;;;;;6.15;4.32;;;5.60;99.90;;;;;;5022047;28;20387;-61
2022/09/21 05:14:44;;;;;;;13.73;4.85;;;5.70;99.90;;;;;;5028441;28;20063;-58
2022/09/21 05:17:11;;;;;;;6.20;4.47;;;5.70;99.90;;;;;;5027723;28;20362;-56
2022/09/21 05:19:39;;;;;;;8.73;3.75;;;5.70;99.90;;;;;;5022079;28;20768;-57
2022/09/21 05:22:05;;;;;;;8.20;4.72;;;5.70;99.90;;;;;;5023587;28;20085;-57
2022/09/21 05:24:32;;;;;;;;;;;5.70;99.90;;;;;;5019215;28;20087;-56
2022/09/21 05:26:59;;;;;;;5.15;3.83;;;5.70;99.90;;;;;;5016172;28;19924;-55
2022/09/21 05:29:26;;;;;;;6.63;4.00;;;5.70;99.90;;;;;;5021408;28;20052;-62
2022/09/21 05:31:53;;;;;;;;;;;5.80;99.90;;;;;;5020615;28;20045;-60
2022/09/21 05:34:35;;;;;;;6.03;3.65;;;5.80;99.90;;;;;;5018587;28;19924;-56
2022/09/21 05:37:05;;;;;;;6.10;3.88;;;5.80;99.90;;;;;;5020900;28;20985;-54
2022/09/21 05:39:32;;;;;;;6.20;4.50;;;5.80;99.90;;;;;;5019143;28;20479;-60
2022/09/21 05:41:59;;;;;;;7.93;4.15;;;5.90;99.90;;;;;;5018973;28;20630;-60
2022/09/21 05:44:26;;;;;;;5.18;3.75;;;5.90;99.90;;;;;;5018955;28;20034;-59
2022/09/21 05:47:18;;;;;;;7.68;4.07;;;6.00;99.90;;;;;;5029748;28;20415;-55
2022/09/21 05:49:50;;;;;;;6.78;3.67;;;6.00;99.90;;;;;;5018996;28;20796;-59
2022/09/21 05:52:41;;;;;;;7.20;4.07;;;6.10;99.90;;;;;;5007547;28;20057;-57
2022/09/21 05:55:24;;;;;;;3.88;3.05;;;6.10;99.90;;;;;;5016882;28;20152;-57
2022/09/21 05:57:59;;;;;;;5.82;3.38;;;6.10;99.90;;;;;;5020941;28;20996;-56
2022/09/21 06:00:44;;;;;;;3.42;3.05;;;6.00;99.90;;;;;;5021517;28;20794;-58
2022/09/21 06:03:21;;;;;;;7.18;3.70;;;6.00;99.90;;;;;;5017521;28;20172;-56
2022/09/21 06:05:48;;;;;;;4.35;3.45;;;6.00;99.90;;;;;;5026355;28;20095;-56
2022/09/21 06:08:15;;;;;;;6.45;3.67;;;6.00;99.90;;;;;;5020440;28;20037;-56
2022/09/21 06:10:42;;;;;;;5.57;3.78;;;5.90;99.90;;;;;;5018405;28;20048;-57
2022/09/21 06:13:08;;;;;;;;;;;6.00;99.90;;;;;;5024869;28;20048;-54
2022/09/21 06:15:39;;;;;;;10.13;3.78;;;6.00;99.90;;;;;;5017609;28;19925;-55
2022/09/21 06:18:06;;;;;;;8.10;4.32;;;6.10;99.90;;;;;;5018264;28;20056;-55
2022/09/21 06:20:34;;;;;;;7.88;4.07;;;6.20;99.90;;;;;;5012208;28;20073;-57
2022/09/21 06:23:09;;;;;;;7.65;4.07;;;6.30;99.90;;;;;;5019245;28;20882;-56
2022/09/21 06:25:36;;;;;;;5.47;3.22;;;6.40;99.90;;;;;;5027918;28;20107;-58
2022/09/21 06:28:05;;;;;;;7.97;4.10;;;6.50;99.90;;;;;;5020716;28;20497;-56
2022/09/21 06:30:33;;;;;;;7.38;4.18;;;6.70;99.90;;;;;;5020263;28;20129;-60
2022/09/21 06:33:01;;;;;;;16.58;4.07;;;7.00;99.90;;;;;;5024513;28;20144;-57
2022/09/21 06:35:29;;;;;;;10.05;4.28;;;7.30;99.90;;;;;;5025180;28;20041;-56
2022/09/21 06:38:01;;;;;;;4.82;3.30;;;7.50;99.90;;;;;;5017165;28;20575;-56
2022/09/21 06:40:29;;;;;;;9.85;4.20;;;7.70;99.90;;;;;;5028230;28;20048;-56
2022/09/21 06:43:00;;;;;;;6.75;3.88;;;7.90;99.90;;;;;;5033277;28;20138;-58
2022/09/21 06:45:28;;;;;;;8.30;3.88;;;8.10;99.90;;;;;;5018297;28;20042;-56
2022/09/21 06:47:55;;;;;;;4.22;3.55;;;8.30;99.90;;;;;;5024506;28;20041;-60
2022/09/21 06:50:22;;;;;;;;;;;8.60;99.90;;;;;;5028303;28;20593;-60
2022/09/21 06:52:48;;;;;;;9.30;3.78;;;8.80;99.90;;;;;;5024199;28;19924;-56
2022/09/21 06:55:15;;;;;;;6.93;4.15;;;8.90;99.90;;;;;;5022375;28;20047;-56
2022/09/21 06:57:42;;;;;;;12.82;4.70;;;9.00;99.90;;;;;;5027080;28;20045;-58
2022/09/21 07:00:10;;;;;;;;;;;9.10;99.90;;;;;;5022915;28;20056;-53
2022/09/21 07:02:37;;;;;;;16.75;4.88;;;9.20;99.90;;;;;;5031087;28;19936;-53
2022/09/21 07:05:04;;;;;;;12.25;4.72;;;9.30;99.90;;;;;;5016727;28;20045;-56
2022/09/21 07:07:31;;;;;;;8.75;4.68;;;9.30;99.90;;;;;;5027066;28;20139;-52
2022/09/21 07:09:59;;;;;;;8.80;4.40;;;9.40;99.90;;;;;;5021786;28;20041;-60
2022/09/21 07:12:40;;;;;;;11.43;5.40;;;9.40;99.90;;;;;;5024408;28;20037;-58
2022/09/21 07:15:09;;;;;;;9.63;4.22;;;9.40;99.90;;;;;;5023789;28;20055;-59
2022/09/21 07:17:38;;;;;;;14.93;5.68;;;9.60;99.90;;;;;;5021092;28;20045;-60
2022/09/21 07:20:06;;;;;;;12.52;5.38;;;9.90;99.90;;;;;;5023424;28;20041;-60
2022/09/21 07:22:34;;;;;;;11.32;5.68;;;10.40;99.90;;;;;;5020527;28;21097;-57
2022/09/21 07:25:03;;;;;;;11.60;5.68;;;10.80;99.90;;;;;;5015498;28;20049;-57
2022/09/21 07:27:31;;;;;;;14.32;6.32;;;11.10;99.90;;;;;;5024373;28;20041;-57
2022/09/21 07:29:58;;;;;;;10.45;5.95;;;11.60;99.90;;;;;;5022155;28;20052;-57
2022/09/21 07:32:25;;;;;;;7.72;5.05;;;11.90;99.90;;;;;;5025765;28;20044;-58
2022/09/21 07:34:55;;;;;;;;;;;12.30;99.90;;;;;;5026754;28;20860;-59
2022/09/21 07:37:23;;;;;;;11.35;5.53;;;12.50;99.90;;;;;;5019095;28;19952;-59
2022/09/21 07:39:51;;;;;;;10.25;5.50;;;12.60;99.90;;;;;;5021803;28;20502;-59
2022/09/21 07:42:21;;;;;;;10.23;5.70;;;12.40;99.90;;;;;;5021121;28;20151;-59
2022/09/21 07:44:48;;;;;;;15.20;5.82;;;12.50;99.90;;;;;;5021276;28;20037;-58
2022/09/21 07:47:16;;;;;;;8.43;4.95;;;12.80;99.90;;;;;;5021087;28;20136;-58
2022/09/21 07:49:45;;;;;;;8.73;5.05;;;13.20;99.90;;;;;;5018043;28;20117;-58
2022/09/21 07:52:12;;;;;;;10.50;5.43;;;13.60;99.90;;;;;;5021117;28;20044;-59
2022/09/21 07:54:39;;;;;;;6.60;4.25;;;13.70;99.90;;;;;;5021339;28;20049;-60
2022/09/21 07:59:53;;;;;;;8.27;4.13;;;13.50;99.90;;;;;;5003963;28;20053;-61
2022/09/21 08:02:19;;;;;;;6.68;4.60;;;13.20;99.90;;;;;;5022749;28;20048;-60
2022/09/21 08:04:46;;;;;;;;;;;13.20;99.90;;;;;;5018616;28;20127;-58
2022/09/21 08:07:13;;;;;;;9.63;4.50;;;13.30;99.90;;;;;;5018812;28;19933;-59
2022/09/21 08:09:40;;;;;;;11.40;4.28;;;13.40;99.90;;;;;;5014829;28;20610;-61
2022/09/21 08:12:08;;;;;;;7.50;4.78;;;13.60;99.90;;;;;;5021137;28;20754;-58
2022/09/21 08:14:34;;;;;;;12.13;5.60;;;13.80;99.90;;;;;;5023417;28;20041;-57
2022/09/21 08:17:01;;;;;;;7.65;4.22;;;14.20;99.90;;;;;;5023770;28;20052;-59
2022/09/21 08:19:28;;;;;;;4.40;3.60;;;14.30;99.90;;;;;;5027687;28;20508;-61
2022/09/21 08:21:54;;;;;;;8.57;4.20;;;14.60;99.90;;;;;;5019867;28;20482;-59
2022/09/21 08:24:25;;;;;;;10.45;4.32;;;14.80;99.90;;;;;;5014044;28;20049;-61
2022/09/21 08:26:52;;;;;;;9.48;3.58;;;15.10;99.90;;;;;;5026368;28;20044;-62
2022/09/21 08:29:19;;;;;;;10.93;4.32;;;15.40;99.90;;;;;;5022874;28;20099;-61
2022/09/21 08:31:46;;;;;;;;;;;15.70;99.90;;;;;;5019690;28;20073;-58
2022/09/21 08:34:15;;;;;;;10.95;3.85;;;16.00;99.90;;;;;;5021141;28;19925;-61
2022/09/21 08:36:41;;;;;;;11.38;3.15;;;16.10;99.90;;;;;;5024733;28;20144;-59
2022/09/21 08:39:08;;;;;;;7.78;2.90;;;16.20;99.90;;;;;;5022207;28;20037;-59
2022/09/21 08:41:47;;;;;;;;;;;16.30;99.90;;;;;;5018718;28;20033;-58
2022/09/21 08:44:19;;;;;;;7.82;2.70;;;16.50;99.90;;;;;;5033439;28;20398;-61
2022/09/21 08:47:10;;;;;;;5.43;2.78;;;16.70;99.90;;;;;;5017742;28;20045;-60
2022/09/21 08:49:39;;;;;;;4.50;2.65;;;16.90;99.90;;;;;;5017419;28;20120;-60
2022/09/21 08:52:11;;;;;;;5.30;3.53;;;17.00;99.90;;;;;;5024175;28;20417;-55
2022/09/21 08:54:57;;;;;;;10.95;3.55;;;17.10;99.90;;;;;;5024301;28;20041;-57
2022/09/21 08:57:32;;;;;;;6.28;3.20;;;17.20;99.90;;;;;;5021590;28;20052;-55
2022/09/21 09:00:01;;;;;;;10.05;3.22;;;17.30;99.90;;;;;;5025600;28;20065;-58
2022/09/21 09:02:56;;;;;;;11.40;3.55;;;17.40;98.60;;;;;;5022649;28;20717;-57
2022/09/21 09:05:38;;;;;;;5.18;3.15;;;17.50;99.90;;;;;;5017365;28;20487;-57
2022/09/21 09:08:32;;;;;;;8.60;2.92;;;17.60;97.70;;;;;;5021964;28;20076;-59
2022/09/21 09:11:04;;;;;;;6.22;3.00;;;17.80;94.20;;;;;;5021803;28;20076;-60
2022/09/21 09:13:56;;;;;;;10.82;3.30;;;17.90;91.80;;;;;;5035078;28;20033;-61
2022/09/21 09:16:43;;;;;;;9.90;3.40;;;18.00;92.10;;;;;;5016246;28;20095;-61
2022/09/21 09:19:23;;;;;;;5.82;2.85;;;18.00;83.00;;;;;;5019118;28;20134;-62
2022/09/21 09:21:50;;;;;;;8.30;2.55;;;18.00;87.30;;;;;;5017531;28;20050;-61
2022/09/21 09:24:23;;;;;;;6.80;2.42;;;18.00;85.40;;;;;;5016021;28;20270;-60
2022/09/21 09:26:59;;;;;;;5.05;2.42;;;18.20;86.30;;;;;;5022419;28;20045;-63
2022/09/21 09:29:41;;;;;;;5.70;2.63;;;18.30;83.70;;;;;;5021522;28;20043;-58
2022/09/21 09:32:13;;;;;;;3.35;2.47;;;18.40;79.90;;;;;;5015710;28;20045;-57
2022/09/21 09:34:52;;;;;;;3.95;2.33;;;18.40;75.40;;;;;;5029241;28;20080;-61
2022/09/21 09:37:27;;;;;;;7.68;2.70;;;18.20;75.80;;;;;;5019856;28;20041;-63
2022/09/21 09:39:56;;;;;;;9.30;2.28;;;18.10;76.10;;;;;;5014572;28;20411;-60
2022/09/21 09:42:44;;;;;;;4.50;2.55;;;18.20;78.30;;;;;;5017279;28;20599;-61
2022/09/21 09:45:38;;;;;;;5.28;2.88;;;18.30;76.50;;;;;;5019581;28;20048;-60
2022/09/21 09:48:28;;;;;;;9.18;3.72;;;18.40;81.20;;;;;;5028192;28;20068;-59
2022/09/21 09:50:56;;;;;;;4.32;2.55;;;18.70;78.30;;;;;;5022541;28;20651;-61
2022/09/21 09:53:26;;;;;;;8.48;2.50;;;18.80;77.90;;;;;;5019393;28;20057;-62
2022/09/21 09:55:55;;;;;;;11.90;2.72;;;18.90;74.80;;;;;;5021436;28;20104;-63
2022/09/21 09:58:41;;;;;;;4.28;2.78;;;19.00;72.50;;;;;;5023020;28;20045;-61
2022/09/21 10:01:07;;;;;;;3.17;2.08;;;19.10;71.40;;;;;;5017031;28;20045;-60
2022/09/21 10:03:35;;;;;;;5.50;2.22;;;19.20;69.10;;;;;;5020128;28;20045;-57
2022/09/21 10:06:01;;;;;;;4.68;2.42;;;19.20;64.20;;;;;;5020875;28;20050;-60
2022/09/21 10:08:40;;;;;;;6.40;2.92;;;18.90;64.60;;;;;;5021147;28;20557;-60
2022/09/21 10:11:09;;;;;;;2.47;1.67;;;18.80;68.50;;;;;;5022169;28;20040;-60
2022/09/21 10:13:43;;;;;;;4.35;1.88;;;18.80;63.40;;;;;;5014555;28;20030;-62
2022/09/21 10:16:19;;;;;;;5.60;2.42;;;18.80;63.40;;;;;;5018276;28;20155;-63
2022/09/21 10:18:55;;;;;;;7.23;2.43;;;18.60;62.90;;;;;;5017046;28;20052;-58
2022/09/21 10:21:32;;;;;;;3.85;2.10;;;18.60;65.80;;;;;;5023775;28;20051;-57
2022/09/21 10:24:00;;;;;;;6.00;2.30;;;18.50;66.30;;;;;;5019831;28;20571;-56
2022/09/21 10:26:33;;;;;;;4.00;1.90;;;18.70;65.70;;;;;;5016963;28;20051;-55
2022/09/21 10:29:15;;;;;;;5.07;2.58;;;18.70;59.90;;;;;;5020646;28;20141;-56
2022/09/21 10:32:02;;;;;;;5.25;2.13;;;18.70;61.40;;;;;;5007510;28;20045;-56
2022/09/21 10:34:30;;;;;;;6.68;2.22;;;18.60;58.80;;;;;;5017907;28;20124;-55
2022/09/21 10:37:00;;;;;;;4.43;1.92;;;18.50;62.90;;;;;;5018978;28;20050;-56
2022/09/21 10:39:31;;;;;;;6.65;2.17;;;18.50;62.10;;;;;;5020346;28;20465;-56
2022/09/21 10:42:02;;;;;;;4.57;1.75;;;18.50;60.00;;;;;;5012553;28;20049;-56
2022/09/21 10:44:42;;;;;;;5.18;1.88;;;18.50;57.80;;;;;;5033632;28;20144;-56
2022/09/21 10:47:18;;;;;;;2.97;1.55;;;18.30;61.00;;;;;;5017372;28;20089;-56
2022/09/21 10:49:58;;;;;;;1.95;1.52;;;18.40;59.20;;;;;;5024727;28;20069;-58
2022/09/21 10:52:37;;;;;;;4.88;1.13;;;18.40;58.30;;;;;;5018542;28;20124;-57
2022/09/21 10:55:07;;;;;;;3.38;1.90;;;18.60;59.60;;;;;;5017494;28;20033;-60
2022/09/21 10:57:34;;;;;;;8.15;1.88;;;18.70;58.30;;;;;;5019584;28;20132;-60
2022/09/21 11:00:28;;;;;;;2.45;1.25;;;18.70;58.20;;;;;;5017852;28;20045;-58
2022/09/21 11:02:59;;;;;;;2.90;1.73;;;18.70;58.60;;;;;;5020273;28;20056;-62
2022/09/21 11:05:32;;;;;;;4.32;1.55;;;18.90;57.10;;;;;;5011608;28;20124;-62
2022/09/21 11:08:01;;;;;;;5.55;1.50;;;19.00;55.90;;;;;;5016264;28;20666;-62
2022/09/21 11:10:52;;;;;;;2.30;1.42;;;19.00;56.20;;;;;;5027959;28;20065;-60
2022/09/21 11:13:46;;;;;;;5.78;1.20;;;19.00;55.70;;;;;;5018369;28;20047;-57
2022/09/21 11:16:33;;;;;;;4.32;1.27;;;19.00;54.40;;;;;;5027322;28;20064;-60
2022/09/21 11:19:21;;;;;;;1.73;1.40;;;18.90;55.50;;;;;;5025631;28;20666;-58
2022/09/21 11:22:07;;;;;;;4.38;1.48;;;18.90;53.20;;;;;;5022423;28;20526;-58
2022/09/21 11:24:46;;;;;;;5.00;1.25;;;19.00;55.40;;;;;;5018287;28;20083;-58
2022/09/21 11:27:20;;;;;;;3.03;1.33;;;19.00;53.80;;;;;;5028384;28;20555;-56
2022/09/21 11:29:59;;;;;;;3.42;0.95;;;19.10;55.10;;;;;;5013350;28;20049;-58
2022/09/21 11:32:50;;;;;;;3.70;1.30;;;19.20;52.00;;;;;;5020933;28;20044;-59
2022/09/21 11:35:35;;;;;;;4.00;0.98;;;19.20;53.50;;;;;;5017831;28;20041;-55
2022/09/21 11:38:03;;;;;;;4.10;1.42;;;19.30;53.20;;;;;;5024683;28;20135;-58
2022/09/21 11:40:32;;;;;;;1.85;1.08;;;19.30;52.40;;;;;;5017571;28;20041;-56
2022/09/21 11:43:19;;;;;;;4.43;1.30;;;19.30;49.30;;;;;;5020460;28;20041;-57
2022/09/21 11:46:29;;;;;;;4.13;1.45;;;19.40;51.10;;;;;;5021408;28;20068;-59
2022/09/21 11:49:18;;;;;;;1.70;1.13;;;19.40;51.70;;;;;;5011891;28;20349;-58
2022/09/21 11:51:54;;;;;;;4.88;1.40;;;19.40;51.30;;;;;;5021823;28;20049;-57
2022/09/21 11:55:15;;;;;;;3.03;1.13;;;19.40;52.10;;;;;;5017825;28;20399;-60
2022/09/21 11:57:49;;;;;;;1.83;1.15;;;19.40;50.90;;;;;;4964780;28;20467;-58
2022/09/21 12:00:23;;;;;;;2.67;1.00;;;19.50;52.60;;;;;;5021583;28;20052;-58
2022/09/21 12:03:25;;;;;;;5.85;1.40;;;19.60;52.60;;;;;;5024010;28;20102;-58
2022/09/21 12:06:15;;;;;;;2.53;1.05;;;19.70;49.30;;;;;;5020354;28;20086;-64
2022/09/21 12:09:38;;;;;;;4.53;1.20;;;19.60;50.90;;;;;;5018007;28;20495;-56
2022/09/21 12:12:18;;;;;;;3.05;1.20;;;19.60;50.20;;;;;;4988457;28;20523;-58
2022/09/21 12:15:01;;;;;;;3.75;1.25;;;19.70;50.30;;;;;;4985960;28;20165;-58
2022/09/21 12:17:27;;;;;;;2.03;1.48;;;19.80;50.50;;;;;;5015747;28;20076;-58
2022/09/21 12:20:14;;;;;;;;;;;19.90;51.00;;;;;;5021378;28;20060;-57
2022/09/21 12:22:44;;;;;;;2.17;1.13;;;20.00;51.10;;;;;;5018865;28;20367;-58
2022/09/21 12:25:24;;;;;;;12.77;1.40;;;19.90;50.80;;;;;;5015646;28;20048;-56
2022/09/21 12:27:59;;;;;;;3.47;1.23;;;19.90;50.40;;;;;;5019843;28;20045;-59
2022/09/21 12:30:27;;;;;;;1.67;0.80;;;20.00;51.20;;;;;;5019583;28;20049;-59
2022/09/21 12:33:14;;;;;;;1.65;1.30;;;20.00;50.50;;;;;;5017339;28;20061;-60
2022/09/21 12:35:48;;;;;;;2.10;1.40;;;20.10;51.90;;;;;;5017041;28;20471;-61
2022/09/21 12:38:37;;;;;;;4.50;1.05;;;20.10;51.70;;;;;;5019049;28;20063;-56
2022/09/21 12:41:29;;;;;;;6.15;1.13;;;20.10;52.60;;;;;;5024949;28;20794;-61
2022/09/21 12:44:17;;;;;;;4.18;0.98;;;20.20;52.60;;;;;;5016791;28;20510;-58
2022/09/21 12:46:50;;;;;;;2.42;1.40;;;20.30;52.80;;;;;;5023213;28;20049;-57
2022/09/21 12:49:28;;;;;;;1.88;1.20;;;20.40;50.70;;;;;;5028577;28;20136;-58
2022/09/21 12:52:02;;;;;;;3.97;1.00;;;20.40;50.70;;;;;;5031164;28;20554;-57
2022/09/21 12:54:46;;;;;;;1.85;0.80;;;20.40;51.10;;;;;;5022335;28;20045;-59
2022/09/21 12:57:35;;;;;;;1.70;0.93;;;20.40;50.70;;;;;;5025684;28;20049;-57
2022/09/21 13:00:25;;;;;;;2.33;0.95;;;20.40;50.10;;;;;;5018802;28;20045;-55
2022/09/21 13:03:04;;;;;;;1.63;0.80;;;20.40;50.20;;;;;;5013848;28;20208;-58
2022/09/21 13:06:16;;;;;;;1.90;0.80;;;20.40;49.10;;;;;;5017513;28;20100;-57
2022/09/21 13:08:46;;;;;;;2.97;1.20;;;20.50;50.40;;;;;;4969400;28;20116;-58
2022/09/21 13:11:19;;;;;;;2.30;1.02;;;20.60;50.90;;;;;;4970736;28;20046;-61
2022/09/21 13:13:52;;;;;;;6.90;1.27;;;20.70;50.50;;;;;;4996170;28;20142;-59
2022/09/21 13:16:30;;;;;;;5.20;0.90;;;20.80;49.80;;;;;;5016373;28;20123;-59
2022/09/21 13:19:16;;;;;;;1.73;1.10;;;20.90;48.70;;;;;;5016345;28;20053;-56
2022/09/21 13:21:43;;;;;;;4.20;1.30;;;20.80;49.20;;;;;;5017580;28;20053;-60
2022/09/21 13:24:26;;;;;;;2.70;1.10;;;20.70;51.20;;;;;;5023077;28;20041;-61
2022/09/21 13:26:55;;;;;;;3.55;1.30;;;20.70;49.20;;;;;;5017920;28;20083;-58
2022/09/21 13:29:25;;;;;;;6.32;1.10;;;20.50;48.70;;;;;;5019448;28;20403;-57
2022/09/21 13:31:56;;;;;;;2.83;1.17;;;20.40;50.10;;;;;;5021421;28;20042;-59